sensor_id;sensor_type;location;lat;lon;timestamp;P1;durP1;ratioP1;P2;durP2;ratioP2
17201;SDS011;8717;53.588;10.176;2023-12-22T00:02:18;17.97;;;4.20;;
17201;SDS011;8717;53.588;10.176;2023-12-22T00:04:45;16.43;;;3.90;;
17201;SDS011;8717;53.588;10.176;2023-12-22T00:07:12;20.33;;;4.40;;
17201;SDS011;8717;53.588;10.176;2023-12-22T00:09:38;15.77;;;4.03;;
17201;SDS011;8717;53.588;10.176;2023-12-22T00:12:05;17.13;;;3.87;;
17201;SDS011;8717;53.588;10.176;2023-12-22T00:14:32;13.63;;;3.70;;
17201;SDS011;8717;53.588;10.176;2023-12-22T00:16:59;16.17;;;4.00;;
17201;SDS011;8717;53.588;10.176;2023-12-22T00:19:27;13.97;;;3.63;;
17201;SDS011;8717;53.588;10.176;2023-12-22T00:21:53;17.73;;;3.90;;
17201;SDS011;8717;53.588;10.176;2023-12-22T00:24:20;19.83;;;4.13;;
17201;SDS011;8717;53.588;10.176;2023-12-22T00:26:47;17.07;;;4.17;;
17201;SDS011;8717;53.588;10.176;2023-12-22T00:29:13;20.17;;;4.33;;
17201;SDS011;8717;53.588;10.176;2023-12-22T00:31:40;16.50;;;4.27;;
17201;SDS011;8717;53.588;10.176;2023-12-22T00:34:07;15.83;;;3.73;;
17201;SDS011;8717;53.588;10.176;2023-12-22T00:36:35;19.67;;;4.07;;
17201;SDS011;8717;53.588;10.176;2023-12-22T00:39:02;15.67;;;3.73;;
17201;SDS011;8717;53.588;10.176;2023-12-22T00:41:29;22.63;;;4.73;;
17201;SDS011;8717;53.588;10.176;2023-12-22T00:43:55;20.00;;;4.70;;
17201;SDS011;8717;53.588;10.176;2023-12-22T00:46:21;16.40;;;4.10;;
17201;SDS011;8717;53.588;10.176;2023-12-22T00:48:48;19.17;;;4.50;;
17201;SDS011;8717;53.588;10.176;2023-12-22T00:51:14;17.53;;;5.03;;
17201;SDS011;8717;53.588;10.176;2023-12-22T00:53:43;25.10;;;5.23;;
17201;SDS011;8717;53.588;10.176;2023-12-22T00:56:10;20.23;;;4.33;;
17201;SDS011;8717;53.588;10.176;2023-12-22T00:58:38;16.67;;;3.90;;
17201;SDS011;8717;53.588;10.176;2023-12-22T01:01:05;16.50;;;3.60;;
17201;SDS011;8717;53.588;10.176;2023-12-22T01:03:31;22.47;;;5.03;;
17201;SDS011;8717;53.588;10.176;2023-12-22T01:05:58;13.33;;;4.57;;
17201;SDS011;8717;53.588;10.176;2023-12-22T01:08:25;18.00;;;3.20;;
17201;SDS011;8717;53.588;10.176;2023-12-22T01:10:53;12.90;;;3.30;;
17201;SDS011;8717;53.588;10.176;2023-12-22T01:13:19;20.17;;;3.80;;
17201;SDS011;8717;53.588;10.176;2023-12-22T01:15:46;21.33;;;4.03;;
17201;SDS011;8717;53.588;10.176;2023-12-22T01:18:13;17.43;;;4.57;;
17201;SDS011;8717;53.588;10.176;2023-12-22T01:20:39;21.83;;;4.47;;
17201;SDS011;8717;53.588;10.176;2023-12-22T01:23:06;18.83;;;4.40;;
17201;SDS011;8717;53.588;10.176;2023-12-22T01:25:33;19.27;;;5.00;;
17201;SDS011;8717;53.588;10.176;2023-12-22T01:28:01;19.13;;;4.83;;
17201;SDS011;8717;53.588;10.176;2023-12-22T01:30:28;18.17;;;4.13;;
17201;SDS011;8717;53.588;10.176;2023-12-22T01:32:54;18.00;;;4.00;;
17201;SDS011;8717;53.588;10.176;2023-12-22T01:35:21;13.30;;;3.23;;
17201;SDS011;8717;53.588;10.176;2023-12-22T01:37:48;11.07;;;2.90;;
17201;SDS011;8717;53.588;10.176;2023-12-22T01:40:16;11.93;;;3.57;;
17201;SDS011;8717;53.588;10.176;2023-12-22T01:42:43;10.43;;;3.30;;
17201;SDS011;8717;53.588;10.176;2023-12-22T01:45:12;12.40;;;3.33;;
17201;SDS011;8717;53.588;10.176;2023-12-22T01:47:38;8.97;;;2.17;;
17201;SDS011;8717;53.588;10.176;2023-12-22T01:50:06;6.87;;;2.00;;
17201;SDS011;8717;53.588;10.176;2023-12-22T01:52:35;6.37;;;1.80;;
17201;SDS011;8717;53.588;10.176;2023-12-22T01:55:03;7.57;;;2.23;;
17201;SDS011;8717;53.588;10.176;2023-12-22T01:57:30;7.83;;;1.47;;
17201;SDS011;8717;53.588;10.176;2023-12-22T01:59:59;8.70;;;1.90;;
17201;SDS011;8717;53.588;10.176;2023-12-22T02:02:38;8.93;;;2.20;;
17201;SDS011;8717;53.588;10.176;2023-12-22T02:05:07;6.33;;;1.40;;
17201;SDS011;8717;53.588;10.176;2023-12-22T02:07:36;3.27;;;1.00;;
17201;SDS011;8717;53.588;10.176;2023-12-22T02:10:05;5.30;;;1.17;;
17201;SDS011;8717;53.588;10.176;2023-12-22T02:12:33;2.83;;;0.87;;
17201;SDS011;8717;53.588;10.176;2023-12-22T02:15:00;5.00;;;1.00;;
17201;SDS011;8717;53.588;10.176;2023-12-22T02:17:29;4.87;;;1.20;;
17201;SDS011;8717;53.588;10.176;2023-12-22T02:20:03;5.23;;;1.37;;
17201;SDS011;8717;53.588;10.176;2023-12-22T02:22:34;6.53;;;1.57;;
17201;SDS011;8717;53.588;10.176;2023-12-22T02:25:00;5.27;;;1.23;;
17201;SDS011;8717;53.588;10.176;2023-12-22T02:27:28;4.33;;;1.60;;
17201;SDS011;8717;53.588;10.176;2023-12-22T02:30:02;5.70;;;1.50;;
17201;SDS011;8717;53.588;10.176;2023-12-22T02:32:34;7.00;;;1.30;;
17201;SDS011;8717;53.588;10.176;2023-12-22T02:35:03;6.37;;;1.97;;
17201;SDS011;8717;53.588;10.176;2023-12-22T02:37:36;4.17;;;1.53;;
17201;SDS011;8717;53.588;10.176;2023-12-22T02:40:05;7.33;;;1.60;;
17201;SDS011;8717;53.588;10.176;2023-12-22T02:42:33;10.07;;;1.63;;
17201;SDS011;8717;53.588;10.176;2023-12-22T02:45:02;8.63;;;1.87;;
17201;SDS011;8717;53.588;10.176;2023-12-22T02:47:30;8.30;;;1.67;;
17201;SDS011;8717;53.588;10.176;2023-12-22T02:49:57;9.80;;;2.00;;
17201;SDS011;8717;53.588;10.176;2023-12-22T02:52:24;7.27;;;1.73;;
17201;SDS011;8717;53.588;10.176;2023-12-22T02:54:52;8.87;;;2.07;;
17201;SDS011;8717;53.588;10.176;2023-12-22T02:57:18;11.30;;;2.93;;
17201;SDS011;8717;53.588;10.176;2023-12-22T02:59:45;8.93;;;1.93;;
17201;SDS011;8717;53.588;10.176;2023-12-22T03:02:12;13.13;;;2.20;;
17201;SDS011;8717;53.588;10.176;2023-12-22T03:04:39;9.83;;;1.87;;
17201;SDS011;8717;53.588;10.176;2023-12-22T03:07:06;10.17;;;2.10;;
17201;SDS011;8717;53.588;10.176;2023-12-22T03:09:33;7.33;;;1.93;;
17201;SDS011;8717;53.588;10.176;2023-12-22T03:12:01;7.27;;;1.60;;
17201;SDS011;8717;53.588;10.176;2023-12-22T03:14:28;8.97;;;1.70;;
17201;SDS011;8717;53.588;10.176;2023-12-22T03:16:55;7.83;;;2.00;;
17201;SDS011;8717;53.588;10.176;2023-12-22T03:19:22;6.53;;;1.33;;
17201;SDS011;8717;53.588;10.176;2023-12-22T03:21:49;4.70;;;1.37;;
17201;SDS011;8717;53.588;10.176;2023-12-22T03:24:16;5.10;;;1.40;;
17201;SDS011;8717;53.588;10.176;2023-12-22T03:26:43;2.70;;;1.10;;
17201;SDS011;8717;53.588;10.176;2023-12-22T03:29:12;3.60;;;0.90;;
17201;SDS011;8717;53.588;10.176;2023-12-22T03:31:38;5.87;;;1.20;;
17201;SDS011;8717;53.588;10.176;2023-12-22T03:34:05;2.57;;;0.77;;
17201;SDS011;8717;53.588;10.176;2023-12-22T03:36:32;3.73;;;1.23;;
17201;SDS011;8717;53.588;10.176;2023-12-22T03:38:59;3.63;;;0.80;;
17201;SDS011;8717;53.588;10.176;2023-12-22T03:41:26;5.50;;;1.30;;
17201;SDS011;8717;53.588;10.176;2023-12-22T03:43:54;6.23;;;1.03;;
17201;SDS011;8717;53.588;10.176;2023-12-22T03:46:22;7.13;;;1.40;;
17201;SDS011;8717;53.588;10.176;2023-12-22T03:48:49;5.43;;;1.07;;
17201;SDS011;8717;53.588;10.176;2023-12-22T03:51:16;4.03;;;0.83;;
17201;SDS011;8717;53.588;10.176;2023-12-22T03:53:44;7.20;;;1.07;;
17201;SDS011;8717;53.588;10.176;2023-12-22T03:56:10;5.33;;;1.40;;
17201;SDS011;8717;53.588;10.176;2023-12-22T03:58:37;6.50;;;1.57;;
17201;SDS011;8717;53.588;10.176;2023-12-22T04:01:04;5.83;;;1.20;;
17201;SDS011;8717;53.588;10.176;2023-12-22T04:03:34;4.43;;;1.30;;
17201;SDS011;8717;53.588;10.176;2023-12-22T04:06:01;6.93;;;1.30;;
17201;SDS011;8717;53.588;10.176;2023-12-22T04:08:28;8.17;;;1.93;;
17201;SDS011;8717;53.588;10.176;2023-12-22T04:10:55;5.10;;;1.20;;
17201;SDS011;8717;53.588;10.176;2023-12-22T04:13:22;5.63;;;1.13;;
17201;SDS011;8717;53.588;10.176;2023-12-22T04:15:49;7.80;;;1.60;;
17201;SDS011;8717;53.588;10.176;2023-12-22T04:18:15;9.80;;;1.40;;
17201;SDS011;8717;53.588;10.176;2023-12-22T04:20:44;7.70;;;1.67;;
17201;SDS011;8717;53.588;10.176;2023-12-22T04:23:10;9.03;;;1.73;;
17201;SDS011;8717;53.588;10.176;2023-12-22T04:25:37;14.00;;;2.57;;
17201;SDS011;8717;53.588;10.176;2023-12-22T04:28:04;12.10;;;2.13;;
17201;SDS011;8717;53.588;10.176;2023-12-22T04:30:31;11.80;;;2.47;;
17201;SDS011;8717;53.588;10.176;2023-12-22T04:32:58;15.43;;;2.83;;
17201;SDS011;8717;53.588;10.176;2023-12-22T04:35:24;13.87;;;2.37;;
17201;SDS011;8717;53.588;10.176;2023-12-22T04:37:52;16.93;;;2.43;;
17201;SDS011;8717;53.588;10.176;2023-12-22T04:40:19;14.97;;;2.53;;
17201;SDS011;8717;53.588;10.176;2023-12-22T04:42:46;8.57;;;2.20;;
17201;SDS011;8717;53.588;10.176;2023-12-22T04:45:13;12.10;;;2.60;;
17201;SDS011;8717;53.588;10.176;2023-12-22T04:47:42;9.97;;;2.40;;
17201;SDS011;8717;53.588;10.176;2023-12-22T04:50:09;11.87;;;2.30;;
17201;SDS011;8717;53.588;10.176;2023-12-22T04:52:35;10.27;;;2.20;;
17201;SDS011;8717;53.588;10.176;2023-12-22T04:55:04;13.07;;;2.70;;
17201;SDS011;8717;53.588;10.176;2023-12-22T04:57:31;13.77;;;2.53;;
17201;SDS011;8717;53.588;10.176;2023-12-22T04:59:58;8.90;;;2.13;;
17201;SDS011;8717;53.588;10.176;2023-12-22T05:02:25;7.77;;;2.00;;
17201;SDS011;8717;53.588;10.176;2023-12-22T05:04:51;9.43;;;2.43;;
17201;SDS011;8717;53.588;10.176;2023-12-22T05:07:18;15.93;;;3.37;;
17201;SDS011;8717;53.588;10.176;2023-12-22T05:09:45;9.63;;;2.73;;
17201;SDS011;8717;53.588;10.176;2023-12-22T05:12:13;12.83;;;2.13;;
17201;SDS011;8717;53.588;10.176;2023-12-22T05:14:40;18.97;;;2.73;;
17201;SDS011;8717;53.588;10.176;2023-12-22T05:17:07;12.93;;;2.60;;
17201;SDS011;8717;53.588;10.176;2023-12-22T05:19:34;10.73;;;2.27;;
17201;SDS011;8717;53.588;10.176;2023-12-22T05:22:01;11.43;;;2.90;;
17201;SDS011;8717;53.588;10.176;2023-12-22T05:24:28;10.57;;;2.53;;
17201;SDS011;8717;53.588;10.176;2023-12-22T05:26:55;12.93;;;2.57;;
17201;SDS011;8717;53.588;10.176;2023-12-22T05:29:23;13.10;;;2.57;;
17201;SDS011;8717;53.588;10.176;2023-12-22T05:31:50;11.50;;;2.47;;
17201;SDS011;8717;53.588;10.176;2023-12-22T05:34:17;11.03;;;1.90;;
17201;SDS011;8717;53.588;10.176;2023-12-22T05:36:44;7.90;;;2.17;;
17201;SDS011;8717;53.588;10.176;2023-12-22T05:39:11;10.47;;;2.27;;
17201;SDS011;8717;53.588;10.176;2023-12-22T05:41:38;11.90;;;3.03;;
17201;SDS011;8717;53.588;10.176;2023-12-22T05:44:05;10.77;;;2.37;;
17201;SDS011;8717;53.588;10.176;2023-12-22T05:46:36;16.57;;;3.23;;
17201;SDS011;8717;53.588;10.176;2023-12-22T05:49:03;14.87;;;3.30;;
17201;SDS011;8717;53.588;10.176;2023-12-22T05:51:35;8.57;;;1.90;;
17201;SDS011;8717;53.588;10.176;2023-12-22T05:54:03;11.33;;;2.23;;
17201;SDS011;8717;53.588;10.176;2023-12-22T05:56:30;10.13;;;1.90;;
17201;SDS011;8717;53.588;10.176;2023-12-22T05:58:57;10.10;;;1.80;;
17201;SDS011;8717;53.588;10.176;2023-12-22T06:01:24;9.53;;;1.90;;
17201;SDS011;8717;53.588;10.176;2023-12-22T06:03:53;12.60;;;2.03;;
17201;SDS011;8717;53.588;10.176;2023-12-22T06:06:20;11.13;;;2.10;;
17201;SDS011;8717;53.588;10.176;2023-12-22T06:08:47;11.13;;;2.13;;
17201;SDS011;8717;53.588;10.176;2023-12-22T06:11:13;11.57;;;2.30;;
17201;SDS011;8717;53.588;10.176;2023-12-22T06:13:40;10.50;;;1.90;;
17201;SDS011;8717;53.588;10.176;2023-12-22T06:16:10;11.23;;;1.80;;
17201;SDS011;8717;53.588;10.176;2023-12-22T06:18:38;10.57;;;2.70;;
17201;SDS011;8717;53.588;10.176;2023-12-22T06:21:06;8.97;;;1.97;;
17201;SDS011;8717;53.588;10.176;2023-12-22T06:23:35;9.47;;;2.40;;
17201;SDS011;8717;53.588;10.176;2023-12-22T06:26:07;9.13;;;1.93;;
17201;SDS011;8717;53.588;10.176;2023-12-22T06:28:35;8.97;;;1.70;;
17201;SDS011;8717;53.588;10.176;2023-12-22T06:31:04;8.93;;;2.37;;
17201;SDS011;8717;53.588;10.176;2023-12-22T06:33:34;10.10;;;2.03;;
17201;SDS011;8717;53.588;10.176;2023-12-22T06:36:01;11.97;;;1.90;;
17201;SDS011;8717;53.588;10.176;2023-12-22T06:38:30;6.43;;;1.93;;
17201;SDS011;8717;53.588;10.176;2023-12-22T06:40:57;10.80;;;2.10;;
17201;SDS011;8717;53.588;10.176;2023-12-22T06:43:24;9.20;;;2.10;;
17201;SDS011;8717;53.588;10.176;2023-12-22T06:45:51;12.40;;;2.37;;
17201;SDS011;8717;53.588;10.176;2023-12-22T06:48:20;12.43;;;2.23;;
17201;SDS011;8717;53.588;10.176;2023-12-22T06:50:47;12.80;;;2.73;;
17201;SDS011;8717;53.588;10.176;2023-12-22T06:53:13;13.80;;;2.90;;
17201;SDS011;8717;53.588;10.176;2023-12-22T06:55:41;12.87;;;2.30;;
17201;SDS011;8717;53.588;10.176;2023-12-22T06:58:08;17.20;;;2.80;;
17201;SDS011;8717;53.588;10.176;2023-12-22T07:00:35;16.33;;;2.93;;
17201;SDS011;8717;53.588;10.176;2023-12-22T07:03:03;15.60;;;3.23;;
17201;SDS011;8717;53.588;10.176;2023-12-22T07:05:33;16.93;;;2.70;;
17201;SDS011;8717;53.588;10.176;2023-12-22T07:08:02;15.87;;;3.50;;
17201;SDS011;8717;53.588;10.176;2023-12-22T07:10:30;12.07;;;2.97;;
17201;SDS011;8717;53.588;10.176;2023-12-22T07:12:58;20.67;;;3.30;;
17201;SDS011;8717;53.588;10.176;2023-12-22T07:15:24;18.00;;;3.37;;
17201;SDS011;8717;53.588;10.176;2023-12-22T07:17:51;18.47;;;3.23;;
17201;SDS011;8717;53.588;10.176;2023-12-22T07:20:18;25.13;;;4.20;;
17201;SDS011;8717;53.588;10.176;2023-12-22T07:22:45;17.60;;;3.57;;
17201;SDS011;8717;53.588;10.176;2023-12-22T07:25:11;20.13;;;4.10;;
17201;SDS011;8717;53.588;10.176;2023-12-22T07:27:38;16.73;;;3.10;;
17201;SDS011;8717;53.588;10.176;2023-12-22T07:30:07;14.47;;;3.67;;
17201;SDS011;8717;53.588;10.176;2023-12-22T07:32:36;17.10;;;3.50;;
17201;SDS011;8717;53.588;10.176;2023-12-22T07:35:03;20.50;;;3.10;;
17201;SDS011;8717;53.588;10.176;2023-12-22T07:37:30;14.93;;;3.27;;
17201;SDS011;8717;53.588;10.176;2023-12-22T07:39:57;22.37;;;4.43;;
17201;SDS011;8717;53.588;10.176;2023-12-22T07:42:24;18.47;;;3.50;;
17201;SDS011;8717;53.588;10.176;2023-12-22T07:44:50;19.10;;;3.97;;
17201;SDS011;8717;53.588;10.176;2023-12-22T07:47:18;18.33;;;3.83;;
17201;SDS011;8717;53.588;10.176;2023-12-22T07:49:45;13.90;;;3.80;;
17201;SDS011;8717;53.588;10.176;2023-12-22T07:52:14;19.93;;;4.13;;
17201;SDS011;8717;53.588;10.176;2023-12-22T07:54:41;17.83;;;3.53;;
17201;SDS011;8717;53.588;10.176;2023-12-22T07:57:08;18.60;;;4.13;;
17201;SDS011;8717;53.588;10.176;2023-12-22T07:59:35;14.83;;;4.03;;
17201;SDS011;8717;53.588;10.176;2023-12-22T08:02:01;14.73;;;3.13;;
17201;SDS011;8717;53.588;10.176;2023-12-22T08:04:29;18.93;;;3.77;;
17201;SDS011;8717;53.588;10.176;2023-12-22T08:06:57;22.33;;;4.23;;
17201;SDS011;8717;53.588;10.176;2023-12-22T08:09:23;19.33;;;4.30;;
17201;SDS011;8717;53.588;10.176;2023-12-22T08:11:50;16.17;;;3.63;;
17201;SDS011;8717;53.588;10.176;2023-12-22T08:14:18;16.37;;;3.17;;
17201;SDS011;8717;53.588;10.176;2023-12-22T08:16:44;17.67;;;3.47;;
17201;SDS011;8717;53.588;10.176;2023-12-22T08:19:11;16.47;;;2.80;;
17201;SDS011;8717;53.588;10.176;2023-12-22T08:21:39;33.63;;;3.83;;
17201;SDS011;8717;53.588;10.176;2023-12-22T08:24:08;21.10;;;3.60;;
17201;SDS011;8717;53.588;10.176;2023-12-22T08:26:36;14.40;;;3.23;;
17201;SDS011;8717;53.588;10.176;2023-12-22T08:29:03;16.63;;;3.13;;
17201;SDS011;8717;53.588;10.176;2023-12-22T08:31:29;14.33;;;3.67;;
17201;SDS011;8717;53.588;10.176;2023-12-22T08:33:56;13.70;;;3.23;;
17201;SDS011;8717;53.588;10.176;2023-12-22T08:36:22;9.63;;;2.33;;
17201;SDS011;8717;53.588;10.176;2023-12-22T08:38:50;15.60;;;2.70;;
17201;SDS011;8717;53.588;10.176;2023-12-22T08:41:17;12.47;;;2.80;;
17201;SDS011;8717;53.588;10.176;2023-12-22T08:43:44;16.43;;;2.80;;
17201;SDS011;8717;53.588;10.176;2023-12-22T08:46:10;13.43;;;2.57;;
17201;SDS011;8717;53.588;10.176;2023-12-22T08:48:38;10.63;;;2.67;;
17201;SDS011;8717;53.588;10.176;2023-12-22T08:51:04;17.87;;;2.77;;
17201;SDS011;8717;53.588;10.176;2023-12-22T08:53:32;15.90;;;3.03;;
17201;SDS011;8717;53.588;10.176;2023-12-22T08:56:03;15.50;;;3.60;;
17201;SDS011;8717;53.588;10.176;2023-12-22T08:58:32;16.83;;;3.00;;
17201;SDS011;8717;53.588;10.176;2023-12-22T09:00:59;12.03;;;2.60;;
17201;SDS011;8717;53.588;10.176;2023-12-22T09:03:25;18.63;;;3.43;;
17201;SDS011;8717;53.588;10.176;2023-12-22T09:05:53;13.90;;;3.73;;
17201;SDS011;8717;53.588;10.176;2023-12-22T09:08:20;15.23;;;3.37;;
17201;SDS011;8717;53.588;10.176;2023-12-22T09:10:46;17.57;;;3.57;;
17201;SDS011;8717;53.588;10.176;2023-12-22T09:13:16;15.60;;;3.23;;
17201;SDS011;8717;53.588;10.176;2023-12-22T09:15:42;11.07;;;2.80;;
17201;SDS011;8717;53.588;10.176;2023-12-22T09:18:11;8.13;;;2.60;;
17201;SDS011;8717;53.588;10.176;2023-12-22T09:20:38;11.17;;;2.63;;
17201;SDS011;8717;53.588;10.176;2023-12-22T09:23:06;11.70;;;2.47;;
17201;SDS011;8717;53.588;10.176;2023-12-22T09:25:33;14.87;;;2.30;;
17201;SDS011;8717;53.588;10.176;2023-12-22T09:27:59;8.93;;;2.07;;
17201;SDS011;8717;53.588;10.176;2023-12-22T09:30:28;8.57;;;1.63;;
17201;SDS011;8717;53.588;10.176;2023-12-22T09:32:54;11.63;;;2.13;;
17201;SDS011;8717;53.588;10.176;2023-12-22T09:35:21;8.07;;;1.83;;
17201;SDS011;8717;53.588;10.176;2023-12-22T09:37:49;10.50;;;2.07;;
17201;SDS011;8717;53.588;10.176;2023-12-22T09:40:15;9.43;;;2.47;;
17201;SDS011;8717;53.588;10.176;2023-12-22T09:42:42;10.40;;;1.97;;
17201;SDS011;8717;53.588;10.176;2023-12-22T09:45:10;11.40;;;2.33;;
17201;SDS011;8717;53.588;10.176;2023-12-22T09:47:39;13.10;;;2.67;;
17201;SDS011;8717;53.588;10.176;2023-12-22T09:50:08;8.80;;;2.30;;
17201;SDS011;8717;53.588;10.176;2023-12-22T09:52:35;9.53;;;2.00;;
17201;SDS011;8717;53.588;10.176;2023-12-22T09:55:02;13.97;;;2.43;;
17201;SDS011;8717;53.588;10.176;2023-12-22T09:57:31;11.80;;;2.43;;
17201;SDS011;8717;53.588;10.176;2023-12-22T09:59:58;8.47;;;2.50;;
17201;SDS011;8717;53.588;10.176;2023-12-22T10:02:26;11.97;;;2.50;;
17201;SDS011;8717;53.588;10.176;2023-12-22T10:04:56;12.60;;;2.53;;
17201;SDS011;8717;53.588;10.176;2023-12-22T10:07:23;14.17;;;2.77;;
17201;SDS011;8717;53.588;10.176;2023-12-22T10:09:51;10.53;;;2.37;;
17201;SDS011;8717;53.588;10.176;2023-12-22T10:12:18;10.40;;;2.43;;
17201;SDS011;8717;53.588;10.176;2023-12-22T10:14:46;11.30;;;2.57;;
17201;SDS011;8717;53.588;10.176;2023-12-22T10:17:13;8.90;;;2.70;;
17201;SDS011;8717;53.588;10.176;2023-12-22T10:19:41;10.30;;;2.03;;
17201;SDS011;8717;53.588;10.176;2023-12-22T10:22:09;11.07;;;3.30;;
17201;SDS011;8717;53.588;10.176;2023-12-22T10:24:36;12.87;;;2.47;;
17201;SDS011;8717;53.588;10.176;2023-12-22T10:27:03;14.93;;;3.03;;
17201;SDS011;8717;53.588;10.176;2023-12-22T10:29:30;15.17;;;3.20;;
17201;SDS011;8717;53.588;10.176;2023-12-22T10:31:57;15.07;;;3.03;;
17201;SDS011;8717;53.588;10.176;2023-12-22T10:34:26;10.90;;;2.60;;
17201;SDS011;8717;53.588;10.176;2023-12-22T10:36:52;10.63;;;2.50;;
17201;SDS011;8717;53.588;10.176;2023-12-22T10:39:20;10.40;;;2.87;;
17201;SDS011;8717;53.588;10.176;2023-12-22T10:41:47;14.43;;;3.93;;
17201;SDS011;8717;53.588;10.176;2023-12-22T10:44:15;9.60;;;2.90;;
17201;SDS011;8717;53.588;10.176;2023-12-22T10:46:42;9.43;;;3.03;;
17201;SDS011;8717;53.588;10.176;2023-12-22T10:49:09;9.30;;;2.70;;
17201;SDS011;8717;53.588;10.176;2023-12-22T10:51:35;10.07;;;2.30;;
17201;SDS011;8717;53.588;10.176;2023-12-22T10:54:03;14.20;;;3.30;;
17201;SDS011;8717;53.588;10.176;2023-12-22T10:56:32;15.07;;;2.60;;
17201;SDS011;8717;53.588;10.176;2023-12-22T10:58:58;13.63;;;3.03;;
17201;SDS011;8717;53.588;10.176;2023-12-22T11:01:27;11.30;;;2.50;;
17201;SDS011;8717;53.588;10.176;2023-12-22T11:03:57;12.57;;;2.70;;
17201;SDS011;8717;53.588;10.176;2023-12-22T11:06:27;10.23;;;2.60;;
17201;SDS011;8717;53.588;10.176;2023-12-22T11:08:56;11.73;;;2.40;;
17201;SDS011;8717;53.588;10.176;2023-12-22T11:11:25;12.23;;;2.57;;
17201;SDS011;8717;53.588;10.176;2023-12-22T11:13:56;11.67;;;2.60;;
17201;SDS011;8717;53.588;10.176;2023-12-22T11:16:23;11.00;;;2.67;;
17201;SDS011;8717;53.588;10.176;2023-12-22T11:18:50;20.00;;;3.60;;
17201;SDS011;8717;53.588;10.176;2023-12-22T11:21:20;12.90;;;2.63;;
17201;SDS011;8717;53.588;10.176;2023-12-22T11:23:47;11.97;;;3.33;;
17201;SDS011;8717;53.588;10.176;2023-12-22T11:26:16;12.17;;;2.23;;
17201;SDS011;8717;53.588;10.176;2023-12-22T11:28:44;12.73;;;2.63;;
17201;SDS011;8717;53.588;10.176;2023-12-22T11:31:13;12.03;;;2.63;;
17201;SDS011;8717;53.588;10.176;2023-12-22T11:33:43;7.67;;;2.17;;
17201;SDS011;8717;53.588;10.176;2023-12-22T11:36:11;13.97;;;3.00;;
17201;SDS011;8717;53.588;10.176;2023-12-22T11:38:39;14.97;;;2.70;;
17201;SDS011;8717;53.588;10.176;2023-12-22T11:41:06;14.60;;;2.50;;
17201;SDS011;8717;53.588;10.176;2023-12-22T11:43:36;13.67;;;2.87;;
17201;SDS011;8717;53.588;10.176;2023-12-22T11:46:04;10.53;;;2.53;;
17201;SDS011;8717;53.588;10.176;2023-12-22T11:48:32;10.60;;;2.40;;
17201;SDS011;8717;53.588;10.176;2023-12-22T11:50:59;15.67;;;3.47;;
17201;SDS011;8717;53.588;10.176;2023-12-22T11:53:29;13.43;;;2.33;;
17201;SDS011;8717;53.588;10.176;2023-12-22T11:55:58;9.63;;;2.10;;
17201;SDS011;8717;53.588;10.176;2023-12-22T11:58:34;15.50;;;2.83;;
17201;SDS011;8717;53.588;10.176;2023-12-22T12:01:05;9.80;;;2.50;;
17201;SDS011;8717;53.588;10.176;2023-12-22T12:03:36;10.20;;;2.40;;
17201;SDS011;8717;53.588;10.176;2023-12-22T12:06:11;11.57;;;3.07;;
17201;SDS011;8717;53.588;10.176;2023-12-22T12:08:41;14.57;;;2.63;;
17201;SDS011;8717;53.588;10.176;2023-12-22T12:11:07;13.93;;;2.63;;
17201;SDS011;8717;53.588;10.176;2023-12-22T12:13:34;13.30;;;3.00;;
17201;SDS011;8717;53.588;10.176;2023-12-22T12:16:07;10.40;;;2.63;;
17201;SDS011;8717;53.588;10.176;2023-12-22T12:18:34;13.17;;;2.77;;
17201;SDS011;8717;53.588;10.176;2023-12-22T12:21:02;14.53;;;3.10;;
17201;SDS011;8717;53.588;10.176;2023-12-22T12:23:32;10.43;;;2.27;;
17201;SDS011;8717;53.588;10.176;2023-12-22T12:25:58;12.80;;;2.90;;
17201;SDS011;8717;53.588;10.176;2023-12-22T12:28:25;13.13;;;2.80;;
17201;SDS011;8717;53.588;10.176;2023-12-22T12:30:57;13.37;;;2.80;;
17201;SDS011;8717;53.588;10.176;2023-12-22T12:33:25;9.33;;;3.17;;
17201;SDS011;8717;53.588;10.176;2023-12-22T12:35:54;14.00;;;2.70;;
17201;SDS011;8717;53.588;10.176;2023-12-22T12:38:23;14.97;;;2.97;;
17201;SDS011;8717;53.588;10.176;2023-12-22T12:41:01;13.00;;;3.20;;
17201;SDS011;8717;53.588;10.176;2023-12-22T12:43:30;9.17;;;2.53;;
17201;SDS011;8717;53.588;10.176;2023-12-22T12:46:02;7.93;;;2.23;;
17201;SDS011;8717;53.588;10.176;2023-12-22T12:48:29;13.27;;;2.90;;
17201;SDS011;8717;53.588;10.176;2023-12-22T12:51:01;14.77;;;2.50;;
17201;SDS011;8717;53.588;10.176;2023-12-22T12:53:30;12.67;;;3.03;;
17201;SDS011;8717;53.588;10.176;2023-12-22T12:55:57;8.80;;;2.27;;
17201;SDS011;8717;53.588;10.176;2023-12-22T12:58:27;15.07;;;2.03;;
17201;SDS011;8717;53.588;10.176;2023-12-22T13:00:54;9.90;;;2.20;;
17201;SDS011;8717;53.588;10.176;2023-12-22T13:03:30;7.67;;;2.13;;
17201;SDS011;8717;53.588;10.176;2023-12-22T13:06:06;6.83;;;1.50;;
17201;SDS011;8717;53.588;10.176;2023-12-22T13:08:33;6.90;;;2.13;;
17201;SDS011;8717;53.588;10.176;2023-12-22T13:11:00;12.10;;;2.17;;
17201;SDS011;8717;53.588;10.176;2023-12-22T13:13:27;5.20;;;1.60;;
17201;SDS011;8717;53.588;10.176;2023-12-22T13:15:54;6.93;;;2.00;;
17201;SDS011;8717;53.588;10.176;2023-12-22T13:18:21;8.77;;;1.60;;
17201;SDS011;8717;53.588;10.176;2023-12-22T13:20:48;8.73;;;1.90;;
17201;SDS011;8717;53.588;10.176;2023-12-22T13:27:03;5.87;;;1.87;;
17201;SDS011;8717;53.588;10.176;2023-12-22T13:29:41;9.37;;;2.00;;
17201;SDS011;8717;53.588;10.176;2023-12-22T13:32:08;6.77;;;2.00;;
17201;SDS011;8717;53.588;10.176;2023-12-22T13:34:45;11.23;;;2.80;;
17201;SDS011;8717;53.588;10.176;2023-12-22T13:37:13;12.33;;;2.70;;
17201;SDS011;8717;53.588;10.176;2023-12-22T13:39:40;9.90;;;2.20;;
17201;SDS011;8717;53.588;10.176;2023-12-22T13:42:14;11.53;;;2.43;;
17201;SDS011;8717;53.588;10.176;2023-12-22T13:44:42;12.47;;;2.80;;
17201;SDS011;8717;53.588;10.176;2023-12-22T13:47:12;11.27;;;2.33;;
17201;SDS011;8717;53.588;10.176;2023-12-22T13:49:39;7.80;;;2.20;;
17201;SDS011;8717;53.588;10.176;2023-12-22T13:52:06;7.83;;;2.10;;
17201;SDS011;8717;53.588;10.176;2023-12-22T13:54:33;6.73;;;1.90;;
17201;SDS011;8717;53.588;10.176;2023-12-22T13:56:59;7.07;;;2.40;;
17201;SDS011;8717;53.588;10.176;2023-12-22T13:59:34;12.43;;;2.40;;
17201;SDS011;8717;53.588;10.176;2023-12-22T14:02:00;10.10;;;2.20;;
17201;SDS011;8717;53.588;10.176;2023-12-22T14:04:27;7.80;;;2.57;;
17201;SDS011;8717;53.588;10.176;2023-12-22T14:06:54;8.60;;;1.90;;
17201;SDS011;8717;53.588;10.176;2023-12-22T14:09:20;8.90;;;2.27;;
17201;SDS011;8717;53.588;10.176;2023-12-22T14:11:49;11.63;;;2.23;;
17201;SDS011;8717;53.588;10.176;2023-12-22T14:14:16;11.27;;;2.27;;
17201;SDS011;8717;53.588;10.176;2023-12-22T14:16:45;10.90;;;2.10;;
17201;SDS011;8717;53.588;10.176;2023-12-22T14:19:12;14.07;;;3.03;;
17201;SDS011;8717;53.588;10.176;2023-12-22T14:21:39;12.43;;;2.90;;
17201;SDS011;8717;53.588;10.176;2023-12-22T14:24:06;16.07;;;3.00;;
17201;SDS011;8717;53.588;10.176;2023-12-22T14:26:32;10.63;;;2.53;;
17201;SDS011;8717;53.588;10.176;2023-12-22T14:29:14;11.40;;;2.77;;
17201;SDS011;8717;53.588;10.176;2023-12-22T14:31:41;12.17;;;3.00;;
17201;SDS011;8717;53.588;10.176;2023-12-22T14:34:09;11.33;;;2.27;;
17201;SDS011;8717;53.588;10.176;2023-12-22T14:36:38;11.40;;;3.03;;
17201;SDS011;8717;53.588;10.176;2023-12-22T14:39:05;9.90;;;2.97;;
17201;SDS011;8717;53.588;10.176;2023-12-22T14:41:35;8.87;;;2.67;;
17201;SDS011;8717;53.588;10.176;2023-12-22T14:44:01;9.97;;;2.33;;
17201;SDS011;8717;53.588;10.176;2023-12-22T14:46:28;13.83;;;2.60;;